Time;durP1;ratioP1;P1;durP2;ratioP2;P2;SDS_P1;SDS_P2;PMS_P1;PMS_P2;Temp;Humidity;BMP_temperature;BMP_pressure;BME280_temperature;BME280_humidity;BME280_pressure;Samples;Min_cycle;Max_cycle;Signal;HPM_P1;HPM_P2
2022/03/23 00:01:33;;;;;;;11.37;2.63;;;;;;;6.73;39.35;95877.13;5019350;28;20272;-76
2022/03/23 00:04:02;;;;;;;4.63;2.53;;;;;;;6.71;39.24;95881.66;5017846;28;20226;-76
2022/03/23 00:06:30;;;;;;;8.47;3.00;;;;;;;6.73;38.99;95882.28;5019096;28;20213;-75
2022/03/23 00:08:58;;;;;;;8.67;2.80;;;;;;;6.65;38.97;95874.56;5020217;28;21515;-75
2022/03/23 00:11:27;;;;;;;7.23;3.27;;;;;;;6.64;39.26;95878.91;5020083;28;20213;-76
2022/03/23 00:13:56;;;;;;;8.43;2.80;;;;;;;6.70;39.01;95882.63;5021252;28;20264;-76
2022/03/23 00:16:24;;;;;;;8.90;3.00;;;;;;;6.73;38.96;95882.28;5021596;28;20298;-76
2022/03/23 00:18:52;;;;;;;6.27;2.80;;;;;;;6.70;39.30;95878.25;5018722;28;20199;-76
2022/03/23 00:21:22;;;;;;;7.73;3.20;;;;;;;6.73;39.52;95877.94;5014006;28;20234;-77
2022/03/23 00:23:50;;;;;;;6.23;2.80;;;;;;;6.77;39.23;95878.44;5020354;28;20203;-76
2022/03/23 00:26:17;;;;;;;9.47;3.20;;;;;;;6.68;39.90;95877.63;5017964;28;20195;-76
2022/03/23 00:28:45;;;;;;;7.73;3.10;;;;;;;6.60;39.82;95876.84;5020044;28;20209;-75
2022/03/23 00:31:14;;;;;;;7.13;2.80;;;;;;;6.60;39.56;95869.91;5019343;28;20303;-75
2022/03/23 00:33:42;;;;;;;7.23;3.00;;;;;;;6.65;39.91;95872.78;5020445;28;20210;-75
2022/03/23 00:36:11;;;;;;;8.13;3.47;;;;;;;6.65;39.90;95882.31;5021093;28;20207;-75
2022/03/23 00:38:41;;;;;;;8.00;3.10;;;;;;;6.58;40.14;95871.81;5018004;28;20213;-74
2022/03/23 00:41:08;;;;;;;6.97;2.90;;;;;;;6.56;40.32;95883.28;5019742;28;20226;-75
2022/03/23 00:43:36;;;;;;;5.50;3.13;;;;;;;6.52;40.67;95879.44;5020970;28;20195;-76
2022/03/23 00:46:04;;;;;;;9.47;3.33;;;;;;;6.40;40.35;95880.72;5018830;28;20349;-75
2022/03/23 00:48:31;;;;;;;8.77;3.13;;;;;;;6.38;40.91;95880.88;5020280;28;20642;-74
2022/03/23 00:50:59;;;;;;;8.63;3.10;;;;;;;6.39;41.32;95885.06;5019484;28;20222;-76
2022/03/23 00:53:27;;;;;;;7.93;3.43;;;;;;;6.32;41.40;95878.94;5015054;28;20222;-75
2022/03/23 00:55:57;;;;;;;6.30;3.00;;;;;;;6.27;41.34;95882.00;5020812;28;20198;-75
2022/03/23 00:58:24;;;;;;;9.67;3.43;;;;;;;6.30;40.76;95883.44;5025310;28;20247;-74
2022/03/23 01:00:53;;;;;;;6.70;3.47;;;;;;;6.23;41.42;95875.53;5019994;28;21821;-76
2022/03/23 01:03:22;;;;;;;7.50;3.17;;;;;;;6.22;41.05;95889.44;5020096;28;20207;-75
2022/03/23 01:05:51;;;;;;;6.80;3.17;;;;;;;6.25;41.06;95888.28;5020507;28;20315;-75
2022/03/23 01:08:19;;;;;;;10.07;3.43;;;;;;;6.23;40.82;95885.09;5024151;28;20290;-75
2022/03/23 01:10:46;;;;;;;7.03;3.53;;;;;;;6.19;40.75;95882.00;5021825;28;20674;-75
2022/03/23 01:13:16;;;;;;;6.40;3.60;;;;;;;6.16;41.44;95874.59;5021634;28;20290;-76
2022/03/23 01:15:44;;;;;;;7.77;3.80;;;;;;;6.16;41.00;95881.50;5025051;28;20205;-75
2022/03/23 01:18:11;;;;;;;8.80;3.70;;;;;;;6.05;41.79;95877.47;5021095;28;20210;-75
2022/03/23 01:20:39;;;;;;;9.80;4.07;;;;;;;6.16;41.35;95877.16;5019802;28;20210;-76
2022/03/23 01:23:07;;;;;;;9.97;3.70;;;;;;;6.05;41.28;95866.34;5023165;28;20673;-75
2022/03/23 01:25:34;;;;;;;9.40;3.83;;;;;;;6.02;41.17;95867.47;5021097;28;20303;-75
2022/03/23 01:28:02;;;;;;;13.00;4.10;;;;;;;6.05;42.21;95863.75;5022538;28;20201;-74
2022/03/23 01:30:32;;;;;;;6.97;3.83;;;;;;;5.99;42.26;95854.88;5026205;28;20308;-76
2022/03/23 01:33:00;;;;;;;8.67;3.97;;;;;;;5.93;42.33;95852.94;5021800;28;20207;-75
2022/03/23 01:35:28;;;;;;;10.87;3.50;;;;;;;5.93;42.78;95860.69;5024609;28;20254;-76
2022/03/23 01:37:55;;;;;;;9.23;3.53;;;;;;;5.88;42.58;95862.94;5023212;28;20289;-76
2022/03/23 01:40:23;;;;;;;9.63;4.27;;;;;;;5.72;43.22;95855.94;5021369;28;20218;-75
2022/03/23 01:42:51;;;;;;;6.53;3.30;;;;;;;5.69;42.30;95860.59;5018218;28;20226;-76
2022/03/23 01:45:19;;;;;;;8.83;3.70;;;;;;;5.69;42.30;95848.53;5021930;28;20226;-76
2022/03/23 01:47:48;;;;;;;6.77;3.27;;;;;;;5.70;43.18;95862.22;5024734;28;20633;-75
2022/03/23 01:50:15;;;;;;;4.83;3.10;;;;;;;5.64;42.41;95857.69;5021471;28;20203;-76
2022/03/23 01:52:44;;;;;;;5.63;3.10;;;;;;;5.62;42.68;95865.59;5021624;28;20278;-76
2022/03/23 01:55:14;;;;;;;8.07;3.40;;;;;;;5.65;42.82;95859.31;5021781;28;20206;-76
2022/03/23 01:57:45;;;;;;;9.03;3.33;;;;;;;5.66;41.84;95858.34;5020104;28;20245;-75
2022/03/23 02:00:15;;;;;;;7.07;3.20;;;;;;;5.59;42.51;95853.03;5022192;28;20198;-76
2022/03/23 02:02:42;;;;;;;6.97;3.13;;;;;;;5.64;42.12;95858.50;5020361;28;20195;-75
2022/03/23 02:05:12;;;;;;;8.07;3.50;;;;;;;5.63;41.92;95861.22;5020352;28;20219;-75
2022/03/23 02:07:40;;;;;;;9.37;3.40;;;;;;;5.62;41.92;95854.47;5021795;28;20543;-76
2022/03/23 02:10:09;;;;;;;7.63;3.27;;;;;;;5.64;42.45;95853.34;5022098;28;20194;-75
2022/03/23 02:12:38;;;;;;;8.70;3.10;;;;;;;5.62;42.18;95852.72;5024980;28;20316;-75
2022/03/23 02:15:13;;;;;;;9.30;3.17;;;;;;;5.61;42.20;95853.66;5022766;28;20230;-75
2022/03/23 02:17:43;;;;;;;6.33;3.20;;;;;;;5.55;41.86;95853.47;5022658;28;20189;-75
2022/03/23 02:20:13;;;;;;;4.90;2.80;;;;;;;5.55;42.29;95858.63;5021591;28;20208;-76
2022/03/23 02:22:43;;;;;;;8.37;3.53;;;;;;;5.58;42.45;95853.16;5017986;28;20284;-75
2022/03/23 02:25:11;;;;;;;7.70;3.40;;;;;;;5.52;42.81;95854.59;5019920;28;20221;-75
2022/03/23 02:27:40;;;;;;;7.73;3.33;;;;;;;5.44;42.46;95852.00;5023733;28;20573;-75
2022/03/23 02:30:10;;;;;;;10.53;3.83;;;;;;;5.42;43.35;95853.94;5021844;28;20206;-75
2022/03/23 02:32:37;;;;;;;9.97;4.13;;;;;;;5.40;43.43;95850.69;5022951;28;20212;-76
2022/03/23 02:35:07;;;;;;;7.10;3.60;;;;;;;5.42;43.25;95853.94;5021509;28;20214;-76
2022/03/23 02:37:35;;;;;;;8.40;4.47;;;;;;;5.32;43.38;95852.44;5025288;28;20201;-76
2022/03/23 02:40:06;;;;;;;12.30;4.50;;;;;;;5.20;44.01;95856.25;5020696;28;20289;-76
2022/03/23 02:42:34;;;;;;;6.67;4.03;;;;;;;5.13;43.96;95848.34;5023564;28;20205;-76
2022/03/23 02:45:01;;;;;;;7.67;3.80;;;;;;;5.10;43.91;95848.66;5024254;28;20245;-76
2022/03/23 02:47:28;;;;;;;10.60;4.03;;;;;;;5.18;43.37;95860.75;5023132;28;20206;-77
2022/03/23 02:49:55;;;;;;;8.23;3.47;;;;;;;5.24;43.22;95857.56;5022084;28;20208;-76
2022/03/23 02:52:21;;;;;;;9.77;3.60;;;;;;;5.20;43.57;95854.50;5023094;28;20206;-76
2022/03/23 03:03:35;;;;;;;7.60;3.20;;;;;;;4.96;44.63;95868.06;5018921;28;20577;-76
2022/03/23 03:06:03;;;;;;;8.83;3.30;;;;;;;4.92;44.94;95860.81;5022481;28;20231;-77
2022/03/23 03:08:48;;;;;;;6.97;3.20;;;;;;;4.86;45.65;95861.41;5024358;28;20343;-77
2022/03/23 03:11:17;;;;;;;8.57;3.50;;;;;;;4.77;45.40;95867.47;5020350;28;20210;-78
2022/03/23 03:13:49;;;;;;;6.53;3.67;;;;;;;4.81;45.78;95863.66;5020078;28;20200;-77
2022/03/23 03:16:16;;;;;;;6.17;3.07;;;;;;;4.77;45.94;95857.19;5022493;28;20708;-77
2022/03/23 03:18:44;;;;;;;7.43;3.50;;;;;;;4.67;45.94;95862.44;5022285;28;20229;-77
2022/03/23 03:21:11;;;;;;;4.73;3.00;;;;;;;4.70;46.83;95863.91;5022188;28;20633;-77
2022/03/23 03:23:41;;;;;;;8.47;3.47;;;;;;;4.69;46.10;95865.66;5023762;28;20200;-76
2022/03/23 03:26:08;;;;;;;6.57;3.40;;;;;;;4.70;46.78;95858.75;5022475;28;20311;-76
2022/03/23 03:28:37;;;;;;;10.67;3.50;;;;;;;4.52;46.78;95875.06;5018107;28;20234;-76
2022/03/23 03:31:07;;;;;;;8.00;3.53;;;;;;;4.52;46.58;95867.34;5022696;28;20204;-76
2022/03/23 03:33:34;;;;;;;10.20;3.83;;;;;;;4.55;47.37;95855.94;5020067;28;20208;-76
2022/03/23 03:36:01;;;;;;;6.13;3.20;;;;;;;4.58;47.23;95861.59;5018382;28;20188;-75
2022/03/23 03:38:28;;;;;;;10.17;4.43;;;;;;;4.62;46.80;95853.56;5021733;28;20198;-75
2022/03/23 03:40:55;;;;;;;7.87;3.70;;;;;;;4.53;47.47;95858.63;5022426;28;20194;-74
2022/03/23 03:43:23;;;;;;;8.97;4.13;;;;;;;4.40;47.45;95847.13;5021098;28;20219;-76
2022/03/23 03:45:50;;;;;;;9.93;4.10;;;;;;;4.42;47.54;95846.03;5021189;28;20598;-76
2022/03/23 03:48:18;;;;;;;7.40;3.77;;;;;;;4.36;47.79;95849.19;5021235;28;20201;-75
2022/03/23 03:50:45;;;;;;;7.87;4.33;;;;;;;4.52;47.38;95862.19;5022797;28;20265;-77
2022/03/23 03:53:12;;;;;;;8.30;4.20;;;;;;;4.55;47.84;95858.50;5021758;28;20270;-75
2022/03/23 03:55:40;;;;;;;9.67;4.20;;;;;;;4.58;47.47;95874.47;5021086;28;20223;-76
2022/03/23 03:58:09;;;;;;;8.40;4.37;;;;;;;4.61;47.69;95867.38;5020578;28;20226;-76
2022/03/23 04:00:37;;;;;;;9.70;3.93;;;;;;;4.48;47.94;95863.44;5021472;28;20629;-76
2022/03/23 04:03:04;;;;;;;12.60;3.70;;;;;;;4.49;47.97;95862.50;5019546;28;20212;-77
2022/03/23 04:05:33;;;;;;;8.47;4.30;;;;;;;4.54;48.11;95865.41;5022479;28;20226;-76
2022/03/23 04:08:00;;;;;;;6.83;3.83;;;;;;;4.46;49.08;95873.09;5017450;28;20295;-76
2022/03/23 04:10:27;;;;;;;8.10;4.20;;;;;;;4.36;48.99;95859.47;5022256;28;20204;-76
2022/03/23 04:12:54;;;;;;;5.50;3.70;;;;;;;4.42;49.67;95870.94;5022753;28;20654;-77
2022/03/23 04:15:21;;;;;;;6.90;4.03;;;;;;;4.46;49.18;95880.81;5020795;28;20270;-76
2022/03/23 04:17:49;;;;;;;10.60;3.80;;;;;;;4.46;49.63;95865.38;5021484;28;20743;-78
2022/03/23 04:20:16;;;;;;;9.20;3.93;;;;;;;4.52;49.93;95872.47;5014932;28;20773;-77
2022/03/23 04:22:44;;;;;;;7.77;3.50;;;;;;;4.57;49.92;95870.25;5016356;28;20565;-76
2022/03/23 04:25:14;;;;;;;9.50;3.60;;;;;;;4.58;49.92;95878.78;5016388;28;20198;-76
2022/03/23 04:27:48;;;;;;;11.90;4.20;;;;;;;4.56;49.30;95875.53;5019395;28;20187;-76
2022/03/23 04:30:17;;;;;;;14.37;4.50;;;;;;;4.53;49.76;95871.50;5017764;28;20210;-75
2022/03/23 04:32:45;;;;;;;9.87;4.47;;;;;;;4.53;50.09;95868.16;5021158;28;20194;-74
2022/03/23 04:35:12;;;;;;;11.77;4.30;;;;;;;4.48;49.94;95868.59;5016551;28;20699;-75
2022/03/23 04:37:39;;;;;;;12.67;4.80;;;;;;;4.57;49.92;95875.41;5018339;28;20203;-76
2022/03/23 04:40:09;;;;;;;13.30;4.20;;;;;;;4.53;50.28;95873.31;5017198;28;20205;-74
2022/03/23 04:42:36;;;;;;;12.17;4.50;;;;;;;4.52;51.08;95880.22;5019395;28;20238;-76
2022/03/23 04:45:04;;;;;;;10.87;4.47;;;;;;;4.54;50.89;95867.16;5020451;28;20315;-75
2022/03/23 04:47:30;;;;;;;13.47;4.43;;;;;;;4.57;50.69;95875.41;5018023;28;20207;-75
2022/03/23 04:49:57;;;;;;;9.90;4.30;;;;;;;4.57;51.27;95880.56;5017710;28;20212;-75
2022/03/23 04:52:24;;;;;;;14.23;4.63;;;;;;;4.57;50.87;95869.44;5018510;28;20879;-78
2022/03/23 04:54:56;;;;;;;10.97;4.23;;;;;;;4.44;51.29;95862.09;5019228;28;20206;-74
2022/03/23 04:57:24;;;;;;;9.63;3.97;;;;;;;4.47;51.16;95873.91;4970102;28;20230;-72
2022/03/23 04:59:51;;;;;;;16.10;4.40;;;;;;;4.54;51.19;95875.72;5012323;28;20201;-75
2022/03/23 05:02:18;;;;;;;12.63;4.60;;;;;;;4.53;51.38;95871.50;5022008;28;20201;-72
2022/03/23 05:04:45;;;;;;;9.30;4.37;;;;;;;4.55;51.61;95868.78;5020495;28;20209;-72
2022/03/23 05:07:12;;;;;;;12.40;4.93;;;;;;;4.55;51.64;95874.75;5018316;28;20272;-73
2022/03/23 05:09:39;;;;;;;10.23;5.23;;;;;;;4.64;51.74;95869.66;5018223;28;20208;-72
2022/03/23 05:12:07;;;;;;;15.80;5.67;;;;;;;4.68;52.03;95873.53;5019617;28;20205;-73
2022/03/23 05:14:36;;;;;;;5.93;4.27;;;;;;;4.71;52.19;95876.63;5019746;28;20684;-73
2022/03/23 05:17:03;;;;;;;12.73;4.27;;;;;;;4.75;51.31;95877.13;5017997;28;20226;-73
2022/03/23 05:19:30;;;;;;;9.90;4.57;;;;;;;4.81;52.08;95885.06;5022716;28;20192;-73
2022/03/23 05:21:57;;;;;;;11.77;4.73;;;;;;;4.84;52.09;95878.78;5014043;28;20245;-73
2022/03/23 05:24:24;;;;;;;10.57;4.73;;;;;;;4.86;51.95;95882.81;5019920;28;20206;-73
2022/03/23 05:26:51;;;;;;;12.87;4.60;;;;;;;4.88;51.84;95883.47;5019558;28;20212;-72
2022/03/23 05:29:18;;;;;;;12.27;4.80;;;;;;;4.82;51.56;95889.22;5023418;28;20210;-74
2022/03/23 05:31:47;;;;;;;11.37;4.13;;;;;;;4.81;52.58;95887.63;5021112;28;20212;-72
2022/03/23 05:34:13;;;;;;;11.20;5.13;;;;;;;4.84;52.88;95894.25;5017188;28;20674;-73
2022/03/23 05:36:41;;;;;;;11.27;4.87;;;;;;;4.89;52.83;95892.00;5020793;28;20576;-73
2022/03/23 05:39:08;;;;;;;11.00;4.53;;;;;;;4.91;52.61;95888.31;5021726;28;20207;-72
2022/03/23 05:41:35;;;;;;;8.67;5.03;;;;;;;5.05;52.88;95899.84;5019517;28;20209;-73
2022/03/23 05:44:02;;;;;;;16.93;4.50;;;;;;;5.04;53.27;95898.22;5024106;28;20659;-73
2022/03/23 05:46:28;;;;;;;12.47;4.90;;;;;;;5.06;53.10;95898.88;5023811;28;20296;-73
2022/03/23 05:48:57;;;;;;;13.80;5.30;;;;;;;5.07;53.23;95898.72;5023492;28;20246;-73
2022/03/23 05:51:24;;;;;;;12.13;5.43;;;;;;;5.08;52.69;95895.19;5019455;28;20211;-73
2022/03/23 05:53:51;;;;;;;13.40;4.50;;;;;;;5.22;52.31;95896.38;5026251;28;20280;-74
2022/03/23 05:56:18;;;;;;;20.57;5.33;;;;;;;5.27;52.45;95909.63;5022144;28;20303;-73
2022/03/23 05:58:45;;;;;;;15.57;4.83;;;;;;;5.27;52.24;95906.22;5025096;28;20203;-73
2022/03/23 06:01:12;;;;;;;19.40;5.87;;;;;;;5.25;52.76;95905.56;5021836;28;20258;-74
2022/03/23 06:03:38;;;;;;;11.27;4.63;;;;;;;5.37;52.68;95901.78;5022673;28;20244;-73
2022/03/23 06:06:09;;;;;;;15.10;5.10;;;;;;;5.34;52.51;95904.66;5024413;28;20244;-74
2022/03/23 06:08:36;;;;;;;10.03;4.67;;;;;;;5.40;53.04;95912.56;5021459;28;20204;-74
2022/03/23 06:11:03;;;;;;;15.73;4.70;;;;;;;5.33;52.90;95911.56;5024956;28;20194;-72
2022/03/23 06:13:29;;;;;;;11.77;4.60;;;;;;;5.40;52.70;95902.25;5015722;28;20766;-74
2022/03/23 06:15:56;;;;;;;19.43;5.20;;;;;;;5.36;53.78;95910.47;5028026;28;20279;-73
2022/03/23 06:18:23;;;;;;;13.33;5.07;;;;;;;5.42;54.36;95902.91;5020136;28;20871;-76
2022/03/23 06:20:51;;;;;;;14.27;4.50;;;;;;;5.38;53.81;95914.50;5025375;28;20685;-73
2022/03/23 06:23:19;;;;;;;11.47;4.60;;;;;;;5.42;54.00;95905.50;5027040;28;20236;-74
2022/03/23 06:25:46;;;;;;;14.73;5.53;;;;;;;5.42;54.89;95904.69;5024369;28;20213;-74
2022/03/23 06:28:13;;;;;;;14.27;4.83;;;;;;;5.38;54.28;95911.91;5024388;28;20543;-73
2022/03/23 06:30:39;;;;;;;11.10;5.10;;;;;;;5.35;54.93;95901.91;5015382;28;20200;-74
2022/03/23 06:33:06;;;;;;;18.50;5.57;;;;;;;5.27;55.76;95901.88;5021692;28;20574;-73
2022/03/23 06:35:33;;;;;;;12.20;4.90;;;;;;;5.30;56.21;95906.72;5024089;28;20715;-73
2022/03/23 06:38:00;;;;;;;22.00;5.17;;;;;;;5.11;56.47;95894.88;5023358;28;20274;-73
2022/03/23 06:40:29;;;;;;;10.07;5.10;;;;;;;5.17;57.18;95908.91;5020742;28;20680;-73
2022/03/23 06:42:55;;;;;;;10.47;4.33;;;;;;;5.26;56.45;95910.56;5021771;28;20658;-74
2022/03/23 06:45:22;;;;;;;10.87;4.43;;;;;;;5.32;56.51;95901.41;5021438;28;20210;-73
2022/03/23 06:47:49;;;;;;;17.20;4.80;;;;;;;5.35;55.56;95909.66;5024060;28;20230;-73
2022/03/23 06:50:16;;;;;;;14.90;4.63;;;;;;;5.42;56.20;95915.81;5022738;28;20222;-72
2022/03/23 06:52:43;;;;;;;10.83;4.50;;;;;;;5.52;55.67;95916.47;5021482;28;20202;-73
2022/03/23 06:55:10;;;;;;;14.17;4.37;;;;;;;5.54;55.73;95922.28;5022713;28;20586;-74
2022/03/23 06:57:38;;;;;;;14.03;4.63;;;;;;;5.61;55.28;95919.91;5022096;28;20591;-73
2022/03/23 07:00:13;;;;;;;10.20;4.17;;;;;;;5.60;55.81;95913.91;5024229;28;20217;-73
2022/03/23 07:02:40;;;;;;;13.13;4.70;;;;;;;5.68;54.80;95919.09;5021362;28;20207;-74
2022/03/23 07:05:08;;;;;;;11.70;4.20;;;;;;;5.69;54.61;95923.31;5020159;28;20285;-74
2022/03/23 07:07:35;;;;;;;9.20;4.03;;;;;;;5.59;54.08;95917.50;5022379;28;20230;-74
2022/03/23 07:10:01;;;;;;;10.70;4.20;;;;;;;5.63;54.32;95925.69;5022301;28;20199;-74
2022/03/23 07:12:28;;;;;;;13.13;4.33;;;;;;;5.62;53.79;95931.84;5024136;28;20197;-73
2022/03/23 07:14:56;;;;;;;9.90;3.93;;;;;;;5.74;53.73;95936.53;5022561;28;20202;-73
2022/03/23 07:17:23;;;;;;;11.43;4.63;;;;;;;5.81;54.15;95928.97;5022012;28;20202;-73
2022/03/23 07:19:50;;;;;;;9.77;4.20;;;;;;;5.78;53.95;95928.47;5023195;28;20196;-74
2022/03/23 07:22:17;;;;;;;7.53;4.00;;;;;;;5.80;54.37;95931.72;5023470;28;20638;-73
2022/03/23 07:24:44;;;;;;;10.00;4.13;;;;;;;5.83;54.44;95926.25;5025376;28;20212;-73
2022/03/23 07:27:12;;;;;;;7.43;4.00;;;;;;;5.82;53.52;95927.22;5022320;28;20306;-75
2022/03/23 07:29:40;;;;;;;11.07;3.80;;;;;;;5.89;53.73;95926.44;5021500;28;20281;-74
2022/03/23 07:32:09;;;;;;;7.53;3.90;;;;;;;5.89;53.57;95930.81;5023304;28;20284;-74
2022/03/23 07:34:36;;;;;;;10.40;4.27;;;;;;;5.76;53.49;95914.94;5021750;28;20205;-73
2022/03/23 07:37:03;;;;;;;9.33;4.33;;;;;;;5.90;53.25;95922.91;5020846;28;20582;-73
2022/03/23 07:39:33;;;;;;;9.23;3.57;;;;;;;6.00;52.52;95923.56;5020693;28;20198;-74
2022/03/23 07:42:02;;;;;;;10.07;3.80;;;;;;;5.98;52.68;95920.34;5022925;28;20198;-75
2022/03/23 07:44:32;;;;;;;13.70;4.83;;;;;;;6.11;53.66;95941.34;5023808;28;20595;-75
2022/03/23 07:47:00;;;;;;;9.47;4.00;;;;;;;6.25;52.45;95934.75;5022152;28;20242;-74
2022/03/23 07:49:28;;;;;;;10.83;4.23;;;;;;;6.34;52.70;95936.38;5019784;28;20203;-74
2022/03/23 07:51:57;;;;;;;11.70;3.97;;;;;;;6.41;51.72;95936.53;5022734;28;20954;-73
2022/03/23 07:54:27;;;;;;;10.83;4.03;;;;;;;6.48;50.75;95930.59;5023293;28;20199;-87
2022/03/23 07:56:54;;;;;;;9.30;4.37;;;;;;;6.57;50.86;95932.22;5025213;28;20974;-78
2022/03/23 07:59:21;;;;;;;9.07;3.80;;;;;;;6.63;50.08;95935.91;5018778;28;20743;-79
2022/03/23 08:01:48;;;;;;;10.70;4.10;;;;;;;6.56;49.40;95922.03;5025671;28;20286;-79
2022/03/23 08:04:15;;;;;;;6.23;3.60;;;;;;;6.56;49.20;95924.59;5016515;28;20226;-80
2022/03/23 08:06:50;;;;;;;18.13;3.90;;;;;;;6.53;49.26;95918.00;5021643;28;20214;-80
2022/03/23 08:09:36;;;;;;;7.53;3.30;;;;;;;6.64;49.64;95929.75;5023108;28;20193;-80
2022/03/23 08:12:16;;;;;;;12.57;3.83;;;;;;;6.54;49.34;95911.06;5024119;28;20207;-79
2022/03/23 08:15:00;;;;;;;8.23;3.30;;;;;;;6.28;49.40;95870.72;5022148;28;20210;-80
2022/03/23 08:20:35;;;;;;;12.53;3.80;;;;;;;6.64;48.53;95909.09;5018869;28;20199;-80
2022/03/23 08:23:07;;;;;;;10.57;4.10;;;;;;;6.84;48.43;95926.69;5014093;28;20195;-80
2022/03/23 08:25:41;;;;;;;8.47;3.80;;;;;;;6.56;47.42;95857.47;5025678;28;20225;-80
2022/03/23 08:28:14;;;;;;;12.60;3.80;;;;;;;6.78;47.80;95873.06;5023145;28;20222;-81
2022/03/23 08:30:43;;;;;;;11.23;3.80;;;;;;;6.95;48.15;95912.63;5017130;28;20199;-81
2022/03/23 08:33:14;;;;;;;9.80;4.10;;;;;;;6.71;47.08;95873.91;5021416;28;20655;-80
2022/03/23 08:35:47;;;;;;;12.90;4.40;;;;;;;7.01;47.28;95906.00;5025516;28;20229;-80
2022/03/23 08:38:19;;;;;;;7.63;4.10;;;;;;;7.32;47.14;95920.63;5027247;28;20199;-81
2022/03/23 08:40:46;;;;;;;17.30;4.70;;;;;;;7.12;46.44;95857.34;5025005;28;20206;-82
2022/03/23 08:43:26;;;;;;;11.03;4.20;;;;;;;7.37;46.65;95892.47;5021999;28;20569;-80
2022/03/23 08:45:54;;;;;;;8.77;4.30;;;;;;;7.28;45.57;95869.41;5020396;28;20206;-77
2022/03/23 08:48:43;;;;;;;20.23;4.73;;;;;;;7.59;45.43;95910.84;5021435;28;20714;-82
2022/03/23 08:54:15;;;;;;;6.53;4.00;;;;;;;7.65;45.39;95877.31;5027810;28;20208;-82
2022/03/23 08:56:55;;;;;;;7.20;4.60;;;;;;;8.12;44.42;95892.75;5021212;28;20287;-88
2022/03/23 08:59:22;;;;;;;10.60;4.53;;;;;;;8.43;43.54;95908.25;5022689;28;20230;-76
2022/03/23 09:02:14;;;;;;;7.93;4.00;;;;;;;8.68;43.42;95917.47;5018174;28;21216;-85
2022/03/23 09:05:15;;;;;;;;;;;;;;;;;;;;;
2022/03/23 09:07:43;;;;;;;12.23;4.50;;;;;;;9.03;42.48;95905.63;5019336;28;20266;-83
2022/03/23 09:10:13;;;;;;;9.13;4.60;;;;;;;9.18;42.42;95908.25;5034051;28;20600;-86
2022/03/23 09:12:40;;;;;;;10.30;4.37;;;;;;;9.37;42.09;95910.31;5018547;28;20246;-84
2022/03/23 09:15:09;;;;;;;14.23;4.53;;;;;;;9.47;41.45;95903.84;5030919;28;20198;-84
2022/03/23 09:17:36;;;;;;;7.77;3.90;;;;;;;9.69;40.85;95908.16;5032801;28;20209;-86
2022/03/23 09:20:04;;;;;;;16.07;5.00;;;;;;;9.92;39.71;95915.81;5033071;28;20207;-86
2022/03/23 09:22:34;;;;;;;13.57;4.50;;;;;;;10.11;38.90;95912.59;5015189;28;20642;-86
2022/03/23 09:25:02;;;;;;;18.57;4.87;;;;;;;10.27;38.47;95910.81;5026398;28;20602;-84
2022/03/23 09:27:33;;;;;;;25.90;5.77;;;;;;;10.22;38.10;95899.16;5033615;28;20625;-85
2022/03/23 09:30:00;;;;;;;12.17;4.60;;;;;;;10.24;37.96;95911.97;5033779;28;20210;-85
2022/03/23 09:32:27;;;;;;;8.90;4.07;;;;;;;9.64;38.59;95901.84;5016273;28;20207;-87
2022/03/23 09:34:53;;;;;;;10.87;4.20;;;;;;;9.54;38.27;95896.97;5027026;28;20207;-85
2022/03/23 09:40:06;;;;;;;7.90;4.03;;;;;;;9.55;38.95;95890.78;5021514;28;20198;-86
2022/03/23 09:42:35;;;;;;;10.03;3.73;;;;;;;9.82;38.93;95896.28;5030145;28;20214;-86
2022/03/23 09:45:03;;;;;;;11.13;4.30;;;;;;;10.07;38.90;95910.56;5021127;28;20198;-86
2022/03/23 09:47:31;;;;;;;8.63;3.80;;;;;;;10.48;37.96;95911.59;5033521;28;20709;-85
2022/03/23 09:49:58;;;;;;;10.20;3.60;;;;;;;10.74;36.68;95901.44;5033495;28;20205;-86
2022/03/23 09:52:25;;;;;;;12.97;4.70;;;;;;;11.21;36.58;95894.78;5033492;28;20198;-86
2022/03/23 09:54:53;;;;;;;9.83;4.47;;;;;;;11.51;35.24;95897.94;5027271;28;20298;-85
2022/03/23 09:57:20;;;;;;;35.83;4.77;;;;;;;11.67;36.19;95888.00;5020732;28;20303;-83
2022/03/23 09:59:49;;;;;;;9.67;4.43;;;;;;;11.98;35.46;95891.97;5021018;28;20361;-85
2022/03/23 10:02:49;;;;;;;11.57;4.53;;;;;;;11.94;36.55;95892.38;5027280;28;20203;-84
2022/03/23 10:06:00;;;;;;;10.03;4.00;;;;;;;11.63;35.42;95894.59;4976108;28;20531;-83
2022/03/23 10:09:07;;;;;;;9.07;3.67;;;;;;;12.00;36.00;95889.97;4979210;28;20233;-85
2022/03/23 10:12:22;;;;;;;10.33;4.40;;;;;;;12.56;34.71;95870.41;5014898;28;20206;-85
2022/03/23 10:15:36;;;;;;;9.20;4.30;;;;;;;12.78;34.30;95877.06;5029008;28;20573;-85
2022/03/23 10:18:32;;;;;;;12.43;4.20;;;;;;;12.89;34.04;95878.25;4994298;28;20195;-85
2022/03/23 10:20:59;;;;;;;10.57;4.23;;;;;;;12.97;33.97;95873.63;5029780;28;20555;-84
2022/03/23 10:23:26;;;;;;;8.43;4.73;;;;;;;13.13;33.58;95876.88;5024173;28;20199;-83
2022/03/23 10:25:55;;;;;;;11.47;3.87;;;;;;;13.34;35.16;95872.19;5020776;28;20204;-80
2022/03/23 10:28:22;;;;;;;8.73;4.80;;;;;;;13.52;35.48;95863.72;5020946;28;20673;-76
2022/03/23 10:30:49;;;;;;;9.70;3.93;;;;;;;13.61;34.07;95881.56;5023179;28;20192;-76
2022/03/23 10:33:22;;;;;;;8.13;5.00;;;;;;;13.48;32.85;95873.75;5021350;28;20673;-78
2022/03/23 10:35:49;;;;;;;6.77;4.23;;;;;;;13.64;32.19;95870.72;5022508;28;20202;-77
2022/03/23 10:38:18;;;;;;;11.53;4.10;;;;;;;13.60;33.04;95866.88;5026651;28;20199;-78
2022/03/23 10:40:47;;;;;;;8.67;4.17;;;;;;;13.73;32.27;95871.28;5021933;28;20230;-77
2022/03/23 10:43:18;;;;;;;9.83;4.37;;;;;;;14.02;32.19;95875.16;5022642;28;20198;-78
2022/03/23 10:45:46;;;;;;;8.67;4.20;;;;;;;14.21;31.60;95866.41;5022720;28;20263;-77
2022/03/23 10:48:16;;;;;;;10.17;4.07;;;;;;;14.13;31.74;95872.69;5026322;28;20609;-77
2022/03/23 10:50:53;;;;;;;7.57;4.00;;;;;;;14.27;31.27;95862.97;5021601;28;20195;-78
2022/03/23 10:53:32;;;;;;;9.03;3.90;;;;;;;14.82;30.77;95850.91;5026231;28;20196;-77
2022/03/23 10:56:00;;;;;;;11.30;4.13;;;;;;;15.04;30.88;95862.59;5022366;28;20272;-77
2022/03/23 10:58:28;;;;;;;15.97;4.00;;;;;;;14.87;30.22;95861.53;5022902;28;20230;-78
2022/03/23 11:01:01;;;;;;;10.37;4.23;;;;;;;14.70;30.10;95866.50;5021976;28;20286;-77
2022/03/23 11:03:39;;;;;;;11.53;4.23;;;;;;;14.77;29.95;95861.22;5021096;28;20282;-76
2022/03/23 11:06:10;;;;;;;10.40;4.23;;;;;;;15.28;29.17;95855.72;5021892;28;20595;-77
2022/03/23 11:08:37;;;;;;;8.83;4.47;;;;;;;15.44;28.05;95849.91;5024078;28;20222;-77
2022/03/23 11:16:44;;;;;;;10.03;4.40;;;;;;;15.97;28.16;95838.81;5024612;28;20209;-77
2022/03/23 11:19:18;;;;;;;6.33;4.07;;;;;;;15.81;28.72;95848.09;5019035;28;20222;-75
2022/03/23 11:22:06;;;;;;;7.87;4.13;;;;;;;15.67;28.72;95842.19;5025922;28;20198;-76
2022/03/23 11:24:36;;;;;;;8.03;4.00;;;;;;;16.05;28.30;95843.75;5022358;28;20209;-76
2022/03/23 11:27:06;;;;;;;9.20;4.33;;;;;;;16.70;27.59;95839.41;5021910;28;20202;-77
2022/03/23 11:29:34;;;;;;;8.13;4.57;;;;;;;16.32;27.43;95837.13;5028087;28;20194;-77
2022/03/23 11:32:03;;;;;;;7.33;4.30;;;;;;;16.30;27.16;95824.25;5024533;28;20213;-76
2022/03/23 11:34:33;;;;;;;5.40;3.70;;;;;;;16.72;27.23;95822.38;5023087;28;20282;-76
2022/03/23 11:37:01;;;;;;;7.63;3.70;;;;;;;16.82;26.91;95816.59;5020520;28;20196;-77
2022/03/23 11:39:29;;;;;;;10.80;4.37;;;;;;;16.87;26.74;95820.13;5019142;28;20198;-77
2022/03/23 11:41:58;;;;;;;10.30;4.07;;;;;;;17.14;26.75;95822.28;5022346;28;20215;-77
2022/03/23 11:44:26;;;;;;;11.17;4.47;;;;;;;17.21;26.09;95817.69;5019643;28;20211;-77
2022/03/23 11:46:58;;;;;;;7.93;3.93;;;;;;;17.03;25.47;95808.91;5024166;28;20273;-76
2022/03/23 11:49:33;;;;;;;6.57;3.50;;;;;;;17.26;25.26;95821.22;5021052;28;20229;-76
2022/03/23 11:52:17;;;;;;;7.90;4.00;;;;;;;17.33;24.88;95811.41;5019937;28;20199;-77
2022/03/23 11:58:02;;;;;;;8.07;4.20;;;;;;;18.30;24.49;95808.81;5021493;28;20232;-77
2022/03/23 12:00:30;;;;;;;9.67;3.93;;;;;;;18.52;24.44;95804.50;5020114;28;20202;-77
2022/03/23 12:02:58;;;;;;;8.57;3.90;;;;;;;18.65;24.67;95796.25;5022401;28;20204;-78
2022/03/23 12:05:26;;;;;;;10.20;4.33;;;;;;;18.29;24.67;95786.16;5018544;28;20199;-77
2022/03/23 12:07:54;;;;;;;12.95;4.75;;;;;;;18.21;24.54;95795.22;5022513;28;20216;-78
2022/03/23 12:10:24;;;;;;;15.23;4.70;;;;;;;18.36;24.59;95790.25;5017420;28;20196;-78
2022/03/23 12:12:51;;;;;;;10.98;3.97;;;;;;;18.72;24.09;95789.00;5020242;28;20222;-77
2022/03/23 12:15:25;;;;;;;7.82;4.28;;;;;;;19.10;23.71;95786.41;5022632;28;20195;-77